sensor_id;sensor_type;location;lat;lon;timestamp;P1;durP1;ratioP1;P2;durP2;ratioP2
15843;SDS011;50807;52.436;13.346;2024-01-10T00:00:15;33.00;;;26.97;;
15843;SDS011;50807;52.436;13.346;2024-01-10T00:00:46;31.93;;;27.40;;
15843;SDS011;50807;52.436;13.346;2024-01-10T00:01:19;32.78;;;27.08;;
15843;SDS011;50807;52.436;13.346;2024-01-10T00:01:50;32.67;;;27.98;;
15843;SDS011;50807;52.436;13.346;2024-01-10T00:02:21;32.53;;;26.63;;
15843;SDS011;50807;52.436;13.346;2024-01-10T00:02:52;32.30;;;27.73;;
15843;SDS011;50807;52.436;13.346;2024-01-10T00:03:24;35.60;;;28.35;;
15843;SDS011;50807;52.436;13.346;2024-01-10T00:03:54;31.23;;;27.07;;
15843;SDS011;50807;52.436;13.346;2024-01-10T00:04:25;34.80;;;27.33;;
15843;SDS011;50807;52.436;13.346;2024-01-10T00:04:56;31.03;;;26.30;;
15843;SDS011;50807;52.436;13.346;2024-01-10T00:05:28;34.67;;;27.17;;
15843;SDS011;50807;52.436;13.346;2024-01-10T00:05:58;33.47;;;28.23;;
15843;SDS011;50807;52.436;13.346;2024-01-10T00:06:29;33.55;;;28.33;;
15843;SDS011;50807;52.436;13.346;2024-01-10T00:07:00;34.27;;;28.23;;
15843;SDS011;50807;52.436;13.346;2024-01-10T00:07:32;34.10;;;28.25;;
15843;SDS011;50807;52.436;13.346;2024-01-10T00:08:03;32.97;;;27.43;;
15843;SDS011;50807;52.436;13.346;2024-01-10T00:08:34;34.58;;;27.27;;
15843;SDS011;50807;52.436;13.346;2024-01-10T00:09:05;34.43;;;27.70;;
15843;SDS011;50807;52.436;13.346;2024-01-10T00:09:37;31.67;;;27.48;;
15843;SDS011;50807;52.436;13.346;2024-01-10T00:10:08;33.10;;;27.10;;
15843;SDS011;50807;52.436;13.346;2024-01-10T00:10:39;33.15;;;27.25;;
15843;SDS011;50807;52.436;13.346;2024-01-10T00:11:09;33.50;;;28.53;;
15843;SDS011;50807;52.436;13.346;2024-01-10T00:11:41;32.00;;;27.02;;
15843;SDS011;50807;52.436;13.346;2024-01-10T00:12:12;34.90;;;28.53;;
15843;SDS011;50807;52.436;13.346;2024-01-10T00:12:42;33.33;;;27.60;;
15843;SDS011;50807;52.436;13.346;2024-01-10T00:13:14;34.08;;;28.50;;
15843;SDS011;50807;52.436;13.346;2024-01-10T00:13:46;32.90;;;27.35;;
15843;SDS011;50807;52.436;13.346;2024-01-10T00:14:16;35.47;;;28.17;;
15843;SDS011;50807;52.436;13.346;2024-01-10T00:14:47;35.63;;;28.47;;
15843;SDS011;50807;52.436;13.346;2024-01-10T00:15:18;36.00;;;28.73;;
15843;SDS011;50807;52.436;13.346;2024-01-10T00:15:50;33.20;;;27.85;;
15843;SDS011;50807;52.436;13.346;2024-01-10T00:16:22;34.53;;;27.73;;
15843;SDS011;50807;52.436;13.346;2024-01-10T00:16:52;34.50;;;28.70;;
15843;SDS011;50807;52.436;13.346;2024-01-10T00:17:23;32.30;;;27.90;;
15843;SDS011;50807;52.436;13.346;2024-01-10T00:17:55;35.25;;;28.25;;
15843;SDS011;50807;52.436;13.346;2024-01-10T00:18:25;33.47;;;27.83;;
15843;SDS011;50807;52.436;13.346;2024-01-10T00:18:56;31.67;;;27.47;;
15843;SDS011;50807;52.436;13.346;2024-01-10T00:19:27;35.03;;;28.03;;
15843;SDS011;50807;52.436;13.346;2024-01-10T00:19:59;36.88;;;30.02;;
15843;SDS011;50807;52.436;13.346;2024-01-10T00:20:30;36.80;;;29.43;;
15843;SDS011;50807;52.436;13.346;2024-01-10T00:21:00;35.33;;;29.73;;
15843;SDS011;50807;52.436;13.346;2024-01-10T00:21:32;36.28;;;29.77;;
15843;SDS011;50807;52.436;13.346;2024-01-10T00:22:05;37.78;;;30.63;;
15843;SDS011;50807;52.436;13.346;2024-01-10T00:22:36;36.27;;;30.30;;
15843;SDS011;50807;52.436;13.346;2024-01-10T00:23:06;35.23;;;29.53;;
15843;SDS011;50807;52.436;13.346;2024-01-10T00:23:38;35.50;;;29.65;;
15843;SDS011;50807;52.436;13.346;2024-01-10T00:24:09;34.73;;;29.83;;
15843;SDS011;50807;52.436;13.346;2024-01-10T00:24:39;34.10;;;28.37;;
15843;SDS011;50807;52.436;13.346;2024-01-10T00:25:10;35.60;;;29.73;;
15843;SDS011;50807;52.436;13.346;2024-01-10T00:25:42;33.95;;;28.50;;
15843;SDS011;50807;52.436;13.346;2024-01-10T00:26:13;32.73;;;28.43;;
15843;SDS011;50807;52.436;13.346;2024-01-10T00:26:44;33.03;;;28.83;;
15843;SDS011;50807;52.436;13.346;2024-01-10T00:27:15;36.50;;;29.45;;
15843;SDS011;50807;52.436;13.346;2024-01-10T00:27:47;34.20;;;30.08;;
15843;SDS011;50807;52.436;13.346;2024-01-10T00:28:18;35.40;;;30.00;;
15843;SDS011;50807;52.436;13.346;2024-01-10T00:28:48;36.00;;;30.87;;
15843;SDS011;50807;52.436;13.346;2024-01-10T00:29:19;34.47;;;29.57;;
15843;SDS011;50807;52.436;13.346;2024-01-10T00:29:51;36.03;;;29.88;;
15843;SDS011;50807;52.436;13.346;2024-01-10T00:30:21;34.13;;;28.67;;
15843;SDS011;50807;52.436;13.346;2024-01-10T00:30:52;33.33;;;28.77;;
15843;SDS011;50807;52.436;13.346;2024-01-10T00:31:24;34.37;;;29.57;;
15843;SDS011;50807;52.436;13.346;2024-01-10T00:31:56;37.17;;;30.67;;
15843;SDS011;50807;52.436;13.346;2024-01-10T00:32:29;36.47;;;30.30;;
15843;SDS011;50807;52.436;13.346;2024-01-10T00:33:00;34.87;;;28.60;;
15843;SDS011;50807;52.436;13.346;2024-01-10T00:33:30;34.20;;;29.03;;
15843;SDS011;50807;52.436;13.346;2024-01-10T00:34:02;32.90;;;27.67;;
15843;SDS011;50807;52.436;13.346;2024-01-10T00:34:33;34.70;;;28.80;;
15843;SDS011;50807;52.436;13.346;2024-01-10T00:35:03;39.10;;;30.33;;
15843;SDS011;50807;52.436;13.346;2024-01-10T00:35:34;38.17;;;30.10;;
15843;SDS011;50807;52.436;13.346;2024-01-10T00:36:06;35.60;;;29.52;;
15843;SDS011;50807;52.436;13.346;2024-01-10T00:36:37;37.57;;;29.43;;
15843;SDS011;50807;52.436;13.346;2024-01-10T00:37:07;32.80;;;28.77;;
15843;SDS011;50807;52.436;13.346;2024-01-10T00:37:38;38.80;;;31.63;;
15843;SDS011;50807;52.436;13.346;2024-01-10T00:38:10;36.60;;;30.45;;
15843;SDS011;50807;52.436;13.346;2024-01-10T00:38:41;34.10;;;29.50;;
15843;SDS011;50807;52.436;13.346;2024-01-10T00:39:12;34.40;;;30.23;;
15843;SDS011;50807;52.436;13.346;2024-01-10T00:39:42;35.10;;;30.40;;
15843;SDS011;50807;52.436;13.346;2024-01-10T00:40:14;36.65;;;30.67;;
15843;SDS011;50807;52.436;13.346;2024-01-10T00:40:45;35.23;;;29.70;;
15843;SDS011;50807;52.436;13.346;2024-01-10T00:41:16;34.30;;;29.53;;
15843;SDS011;50807;52.436;13.346;2024-01-10T00:41:46;37.57;;;30.77;;
15843;SDS011;50807;52.436;13.346;2024-01-10T00:42:18;35.85;;;30.42;;
15843;SDS011;50807;52.436;13.346;2024-01-10T00:42:49;37.20;;;30.70;;
15843;SDS011;50807;52.436;13.346;2024-01-10T00:43:19;36.93;;;31.37;;
15843;SDS011;50807;52.436;13.346;2024-01-10T00:43:50;37.17;;;31.00;;
15843;SDS011;50807;52.436;13.346;2024-01-10T00:44:22;39.38;;;30.85;;
15843;SDS011;50807;52.436;13.346;2024-01-10T00:44:55;37.63;;;32.17;;
15843;SDS011;50807;52.436;13.346;2024-01-10T00:45:25;39.08;;;32.20;;
15843;SDS011;50807;52.436;13.346;2024-01-10T00:45:56;34.50;;;30.07;;
15843;SDS011;50807;52.436;13.346;2024-01-10T00:46:29;35.65;;;29.98;;
15843;SDS011;50807;52.436;13.346;2024-01-10T00:47:00;34.70;;;30.15;;
15843;SDS011;50807;52.436;13.346;2024-01-10T00:47:30;35.67;;;30.77;;
15843;SDS011;50807;52.436;13.346;2024-01-10T00:48:01;37.77;;;30.50;;
15843;SDS011;50807;52.436;13.346;2024-01-10T00:48:33;36.45;;;31.75;;
15843;SDS011;50807;52.436;13.346;2024-01-10T00:49:04;36.20;;;30.93;;
15843;SDS011;50807;52.436;13.346;2024-01-10T00:49:35;35.13;;;30.20;;
15843;SDS011;50807;52.436;13.346;2024-01-10T00:50:06;37.03;;;31.00;;
15843;SDS011;50807;52.436;13.346;2024-01-10T00:50:38;38.88;;;31.92;;
15843;SDS011;50807;52.436;13.346;2024-01-10T00:51:10;38.47;;;30.80;;
15843;SDS011;50807;52.436;13.346;2024-01-10T00:51:40;36.80;;;31.27;;
15843;SDS011;50807;52.436;13.346;2024-01-10T00:52:11;33.47;;;29.80;;
15843;SDS011;50807;52.436;13.346;2024-01-10T00:52:42;35.20;;;30.20;;
15843;SDS011;50807;52.436;13.346;2024-01-10T00:53:14;37.50;;;31.02;;
15843;SDS011;50807;52.436;13.346;2024-01-10T00:53:45;35.30;;;30.27;;
15843;SDS011;50807;52.436;13.346;2024-01-10T00:54:16;37.10;;;29.93;;
15843;SDS011;50807;52.436;13.346;2024-01-10T00:54:47;39.70;;;31.92;;
15843;SDS011;50807;52.436;13.346;2024-01-10T00:55:19;36.95;;;31.52;;
15843;SDS011;50807;52.436;13.346;2024-01-10T00:55:49;38.50;;;31.27;;
15843;SDS011;50807;52.436;13.346;2024-01-10T00:56:20;38.10;;;31.77;;
15843;SDS011;50807;52.436;13.346;2024-01-10T00:56:51;35.60;;;30.03;;
15843;SDS011;50807;52.436;13.346;2024-01-10T00:57:22;35.22;;;30.92;;
15843;SDS011;50807;52.436;13.346;2024-01-10T00:57:53;34.93;;;30.40;;
15843;SDS011;50807;52.436;13.346;2024-01-10T00:58:24;38.37;;;31.03;;
15843;SDS011;50807;52.436;13.346;2024-01-10T00:58:55;40.22;;;31.95;;
15843;SDS011;50807;52.436;13.346;2024-01-10T00:59:27;39.58;;;31.92;;
15843;SDS011;50807;52.436;13.346;2024-01-10T00:59:58;39.73;;;31.67;;
15843;SDS011;50807;52.436;13.346;2024-01-10T01:00:31;38.03;;;31.83;;
15843;SDS011;50807;52.436;13.346;2024-01-10T01:01:03;38.40;;;31.15;;
15843;SDS011;50807;52.436;13.346;2024-01-10T01:01:35;38.35;;;31.73;;
15843;SDS011;50807;52.436;13.346;2024-01-10T01:02:06;38.60;;;31.52;;
15843;SDS011;50807;52.436;13.346;2024-01-10T01:02:37;36.95;;;31.35;;
15843;SDS011;50807;52.436;13.346;2024-01-10T01:03:09;39.97;;;32.58;;
15843;SDS011;50807;52.436;13.346;2024-01-10T01:03:40;36.07;;;31.53;;
15843;SDS011;50807;52.436;13.346;2024-01-10T01:04:10;40.53;;;31.83;;
15843;SDS011;50807;52.436;13.346;2024-01-10T01:04:42;35.53;;;30.23;;
15843;SDS011;50807;52.436;13.346;2024-01-10T01:05:13;37.13;;;31.67;;
15843;SDS011;50807;52.436;13.346;2024-01-10T01:05:44;40.27;;;32.90;;
15843;SDS011;50807;52.436;13.346;2024-01-10T01:06:15;38.90;;;31.83;;
15843;SDS011;50807;52.436;13.346;2024-01-10T01:06:46;37.88;;;31.42;;
15843;SDS011;50807;52.436;13.346;2024-01-10T01:07:17;35.97;;;31.00;;
15843;SDS011;50807;52.436;13.346;2024-01-10T01:08:21;37.33;;;30.77;;
15843;SDS011;50807;52.436;13.346;2024-01-10T01:08:53;37.90;;;31.83;;
15843;SDS011;50807;52.436;13.346;2024-01-10T01:09:24;36.67;;;31.43;;
15843;SDS011;50807;52.436;13.346;2024-01-10T01:09:55;42.25;;;32.13;;
15843;SDS011;50807;52.436;13.346;2024-01-10T01:10:26;37.50;;;31.30;;
15843;SDS011;50807;52.436;13.346;2024-01-10T01:10:58;39.83;;;32.78;;
15843;SDS011;50807;52.436;13.346;2024-01-10T01:11:28;37.37;;;32.40;;
15843;SDS011;50807;52.436;13.346;2024-01-10T01:11:59;38.97;;;31.97;;
15843;SDS011;50807;52.436;13.346;2024-01-10T01:12:30;39.23;;;31.77;;
15843;SDS011;50807;52.436;13.346;2024-01-10T01:13:02;40.28;;;32.88;;
15843;SDS011;50807;52.436;13.346;2024-01-10T01:13:33;38.55;;;30.77;;
15843;SDS011;50807;52.436;13.346;2024-01-10T01:14:04;40.10;;;32.63;;
15843;SDS011;50807;52.436;13.346;2024-01-10T01:14:35;36.97;;;31.83;;
15843;SDS011;50807;52.436;13.346;2024-01-10T01:15:07;38.97;;;32.30;;
15843;SDS011;50807;52.436;13.346;2024-01-10T01:15:38;36.50;;;31.77;;
15843;SDS011;50807;52.436;13.346;2024-01-10T01:16:10;37.53;;;31.33;;
15843;SDS011;50807;52.436;13.346;2024-01-10T01:16:42;39.63;;;30.52;;
15843;SDS011;50807;52.436;13.346;2024-01-10T01:17:14;39.90;;;32.03;;
15843;SDS011;50807;52.436;13.346;2024-01-10T01:17:45;37.77;;;31.17;;
15843;SDS011;50807;52.436;13.346;2024-01-10T01:18:16;40.13;;;32.42;;
15843;SDS011;50807;52.436;13.346;2024-01-10T01:18:46;40.83;;;32.40;;
15843;SDS011;50807;52.436;13.346;2024-01-10T01:19:18;38.13;;;31.92;;
15843;SDS011;50807;52.436;13.346;2024-01-10T01:19:49;36.83;;;31.87;;
15843;SDS011;50807;52.436;13.346;2024-01-10T01:20:20;38.00;;;32.83;;
15843;SDS011;50807;52.436;13.346;2024-01-10T01:20:50;37.50;;;31.63;;
15843;SDS011;50807;52.436;13.346;2024-01-10T01:21:21;37.27;;;31.30;;
15843;SDS011;50807;52.436;13.346;2024-01-10T01:21:53;40.60;;;32.90;;
15843;SDS011;50807;52.436;13.346;2024-01-10T01:22:23;37.80;;;31.40;;
15843;SDS011;50807;52.436;13.346;2024-01-10T01:22:54;37.67;;;32.17;;
15843;SDS011;50807;52.436;13.346;2024-01-10T01:23:25;38.87;;;30.87;;
15843;SDS011;50807;52.436;13.346;2024-01-10T01:23:56;38.08;;;30.85;;
15843;SDS011;50807;52.436;13.346;2024-01-10T01:24:27;40.23;;;31.40;;
15843;SDS011;50807;52.436;13.346;2024-01-10T01:24:58;35.43;;;29.73;;
15843;SDS011;50807;52.436;13.346;2024-01-10T01:25:29;34.13;;;30.37;;
15843;SDS011;50807;52.436;13.346;2024-01-10T01:26:00;37.83;;;31.05;;
15843;SDS011;50807;52.436;13.346;2024-01-10T01:26:31;39.40;;;31.80;;
15843;SDS011;50807;52.436;13.346;2024-01-10T01:27:02;38.77;;;32.20;;
15843;SDS011;50807;52.436;13.346;2024-01-10T01:27:34;36.47;;;30.95;;
15843;SDS011;50807;52.436;13.346;2024-01-10T01:28:05;37.20;;;31.20;;
15843;SDS011;50807;52.436;13.346;2024-01-10T01:28:36;36.75;;;29.92;;
15843;SDS011;50807;52.436;13.346;2024-01-10T01:29:06;36.30;;;29.60;;
15843;SDS011;50807;52.436;13.346;2024-01-10T01:29:38;38.72;;;31.73;;
15843;SDS011;50807;52.436;13.346;2024-01-10T01:30:10;38.03;;;31.30;;
15843;SDS011;50807;52.436;13.346;2024-01-10T01:30:41;40.42;;;32.10;;
15843;SDS011;50807;52.436;13.346;2024-01-10T01:31:12;40.38;;;32.88;;
15843;SDS011;50807;52.436;13.346;2024-01-10T01:31:45;37.47;;;30.00;;
15843;SDS011;50807;52.436;13.346;2024-01-10T01:32:17;38.35;;;31.05;;
15843;SDS011;50807;52.436;13.346;2024-01-10T01:32:47;37.83;;;31.20;;
15843;SDS011;50807;52.436;13.346;2024-01-10T01:33:18;38.07;;;32.13;;
15843;SDS011;50807;52.436;13.346;2024-01-10T01:33:49;36.07;;;30.67;;
15843;SDS011;50807;52.436;13.346;2024-01-10T01:34:21;37.33;;;30.80;;
15843;SDS011;50807;52.436;13.346;2024-01-10T01:34:51;37.37;;;30.83;;
15843;SDS011;50807;52.436;13.346;2024-01-10T01:35:22;39.60;;;31.13;;
15843;SDS011;50807;52.436;13.346;2024-01-10T01:35:53;36.17;;;30.38;;
15843;SDS011;50807;52.436;13.346;2024-01-10T01:36:24;36.37;;;31.17;;
15843;SDS011;50807;52.436;13.346;2024-01-10T01:36:56;38.75;;;31.65;;
15843;SDS011;50807;52.436;13.346;2024-01-10T01:37:26;38.27;;;30.97;;
15843;SDS011;50807;52.436;13.346;2024-01-10T01:37:57;37.50;;;29.77;;
15843;SDS011;50807;52.436;13.346;2024-01-10T01:38:28;39.47;;;30.63;;
15843;SDS011;50807;52.436;13.346;2024-01-10T01:38:59;39.43;;;31.23;;
15843;SDS011;50807;52.436;13.346;2024-01-10T01:39:30;37.97;;;31.38;;
15843;SDS011;50807;52.436;13.346;2024-01-10T01:40:01;40.07;;;31.27;;
15843;SDS011;50807;52.436;13.346;2024-01-10T01:40:32;38.25;;;32.00;;
15843;SDS011;50807;52.436;13.346;2024-01-10T01:41:03;36.63;;;30.77;;
15843;SDS011;50807;52.436;13.346;2024-01-10T01:41:36;38.50;;;32.40;;
15843;SDS011;50807;52.436;13.346;2024-01-10T01:42:06;40.37;;;31.23;;
15843;SDS011;50807;52.436;13.346;2024-01-10T01:42:37;38.97;;;31.13;;
15843;SDS011;50807;52.436;13.346;2024-01-10T01:43:18;36.27;;;30.87;;
15843;SDS011;50807;52.436;13.346;2024-01-10T01:43:51;38.58;;;31.10;;
15843;SDS011;50807;52.436;13.346;2024-01-10T01:44:22;36.87;;;31.00;;
15843;SDS011;50807;52.436;13.346;2024-01-10T01:44:52;38.53;;;31.07;;
15843;SDS011;50807;52.436;13.346;2024-01-10T01:45:23;34.60;;;30.10;;
15843;SDS011;50807;52.436;13.346;2024-01-10T01:45:55;36.03;;;30.50;;
15843;SDS011;50807;52.436;13.346;2024-01-10T01:46:26;35.55;;;30.77;;
15843;SDS011;50807;52.436;13.346;2024-01-10T01:46:59;37.45;;;30.83;;
15843;SDS011;50807;52.436;13.346;2024-01-10T01:47:31;35.65;;;29.52;;
15843;SDS011;50807;52.436;13.346;2024-01-10T01:48:03;35.95;;;29.90;;
15843;SDS011;50807;52.436;13.346;2024-01-10T01:48:35;38.67;;;31.38;;
15843;SDS011;50807;52.436;13.346;2024-01-10T01:49:06;38.70;;;31.40;;
15843;SDS011;50807;52.436;13.346;2024-01-10T01:49:37;37.47;;;31.55;;
15843;SDS011;50807;52.436;13.346;2024-01-10T01:50:08;39.25;;;31.25;;
15843;SDS011;50807;52.436;13.346;2024-01-10T01:50:41;39.20;;;32.92;;
15843;SDS011;50807;52.436;13.346;2024-01-10T01:51:12;35.80;;;31.70;;
15843;SDS011;50807;52.436;13.346;2024-01-10T01:51:46;38.78;;;31.90;;
15843;SDS011;50807;52.436;13.346;2024-01-10T01:52:17;37.85;;;31.60;;
15843;SDS011;50807;52.436;13.346;2024-01-10T01:52:49;37.30;;;30.90;;
15843;SDS011;50807;52.436;13.346;2024-01-10T01:53:20;36.28;;;30.80;;
15843;SDS011;50807;52.436;13.346;2024-01-10T01:53:52;35.38;;;30.35;;
15843;SDS011;50807;52.436;13.346;2024-01-10T01:54:23;36.72;;;29.83;;
15843;SDS011;50807;52.436;13.346;2024-01-10T01:54:57;38.60;;;30.38;;
15843;SDS011;50807;52.436;13.346;2024-01-10T01:55:28;35.47;;;30.50;;
15843;SDS011;50807;52.436;13.346;2024-01-10T01:55:59;37.47;;;29.92;;
15843;SDS011;50807;52.436;13.346;2024-01-10T01:56:33;38.53;;;30.58;;
15843;SDS011;50807;52.436;13.346;2024-01-10T01:57:06;36.92;;;30.50;;
15843;SDS011;50807;52.436;13.346;2024-01-10T01:57:37;38.58;;;32.35;;
15843;SDS011;50807;52.436;13.346;2024-01-10T01:58:09;35.10;;;30.27;;
15843;SDS011;50807;52.436;13.346;2024-01-10T01:58:40;38.67;;;30.67;;
15843;SDS011;50807;52.436;13.346;2024-01-10T01:59:13;38.05;;;31.67;;
15843;SDS011;50807;52.436;13.346;2024-01-10T01:59:44;33.85;;;29.58;;
15843;SDS011;50807;52.436;13.346;2024-01-10T02:00:15;36.50;;;30.90;;
15843;SDS011;50807;52.436;13.346;2024-01-10T02:00:46;37.53;;;30.90;;
15843;SDS011;50807;52.436;13.346;2024-01-10T02:01:19;35.83;;;30.67;;
15843;SDS011;50807;52.436;13.346;2024-01-10T02:01:51;38.58;;;31.55;;
15843;SDS011;50807;52.436;13.346;2024-01-10T02:02:26;36.65;;;30.33;;
15843;SDS011;50807;52.436;13.346;2024-01-10T02:03:00;36.75;;;30.88;;
15843;SDS011;50807;52.436;13.346;2024-01-10T02:03:32;36.97;;;31.02;;
15843;SDS011;50807;52.436;13.346;2024-01-10T02:04:03;36.00;;;30.00;;
15843;SDS011;50807;52.436;13.346;2024-01-10T02:04:34;38.13;;;30.80;;
15843;SDS011;50807;52.436;13.346;2024-01-10T02:05:06;35.60;;;30.60;;
15843;SDS011;50807;52.436;13.346;2024-01-10T02:05:39;36.45;;;30.70;;
15843;SDS011;50807;52.436;13.346;2024-01-10T02:06:10;37.13;;;32.03;;
15843;SDS011;50807;52.436;13.346;2024-01-10T02:06:41;40.67;;;32.65;;
15843;SDS011;50807;52.436;13.346;2024-01-10T02:07:12;37.30;;;31.27;;
15843;SDS011;50807;52.436;13.346;2024-01-10T02:07:43;38.17;;;30.37;;
15843;SDS011;50807;52.436;13.346;2024-01-10T02:08:15;37.72;;;31.52;;
15843;SDS011;50807;52.436;13.346;2024-01-10T02:08:45;37.73;;;30.50;;
15843;SDS011;50807;52.436;13.346;2024-01-10T02:09:16;40.10;;;32.20;;
15843;SDS011;50807;52.436;13.346;2024-01-10T02:09:47;40.55;;;32.22;;
15843;SDS011;50807;52.436;13.346;2024-01-10T02:10:19;38.03;;;30.63;;
15843;SDS011;50807;52.436;13.346;2024-01-10T02:10:50;39.67;;;32.33;;
15843;SDS011;50807;52.436;13.346;2024-01-10T02:11:21;40.75;;;32.28;;
15843;SDS011;50807;52.436;13.346;2024-01-10T02:11:53;40.17;;;32.72;;
15843;SDS011;50807;52.436;13.346;2024-01-10T02:12:26;36.08;;;30.58;;
15843;SDS011;50807;52.436;13.346;2024-01-10T02:12:57;38.80;;;30.85;;
15843;SDS011;50807;52.436;13.346;2024-01-10T02:13:28;37.33;;;30.97;;
15843;SDS011;50807;52.436;13.346;2024-01-10T02:14:00;37.17;;;31.75;;
15843;SDS011;50807;52.436;13.346;2024-01-10T02:14:31;39.60;;;31.63;;
15843;SDS011;50807;52.436;13.346;2024-01-10T02:15:03;40.07;;;32.20;;
15843;SDS011;50807;52.436;13.346;2024-01-10T02:15:34;38.22;;;32.05;;
15843;SDS011;50807;52.436;13.346;2024-01-10T02:16:06;39.58;;;32.00;;
15843;SDS011;50807;52.436;13.346;2024-01-10T02:16:39;38.55;;;31.60;;
15843;SDS011;50807;52.436;13.346;2024-01-10T02:17:09;36.90;;;31.37;;
15843;SDS011;50807;52.436;13.346;2024-01-10T02:17:42;37.50;;;31.38;;
15843;SDS011;50807;52.436;13.346;2024-01-10T02:18:13;38.00;;;32.10;;
15843;SDS011;50807;52.436;13.346;2024-01-10T02:18:44;38.95;;;31.48;;
15843;SDS011;50807;52.436;13.346;2024-01-10T02:19:19;37.70;;;31.13;;
15843;SDS011;50807;52.436;13.346;2024-01-10T02:20:42;35.97;;;29.70;;
15843;SDS011;50807;52.436;13.346;2024-01-10T02:21:13;35.00;;;30.42;;
15843;SDS011;50807;52.436;13.346;2024-01-10T02:21:44;38.47;;;31.10;;
15843;SDS011;50807;52.436;13.346;2024-01-10T02:22:15;37.73;;;30.17;;
15843;SDS011;50807;52.436;13.346;2024-01-10T02:22:46;37.47;;;30.63;;
15843;SDS011;50807;52.436;13.346;2024-01-10T02:23:18;38.83;;;31.52;;
15843;SDS011;50807;52.436;13.346;2024-01-10T02:23:49;41.20;;;32.40;;
15843;SDS011;50807;52.436;13.346;2024-01-10T02:24:20;41.33;;;32.60;;
15843;SDS011;50807;52.436;13.346;2024-01-10T02:24:53;36.30;;;31.17;;
15843;SDS011;50807;52.436;13.346;2024-01-10T02:25:24;39.35;;;32.17;;
15843;SDS011;50807;52.436;13.346;2024-01-10T02:25:55;40.57;;;31.87;;
15843;SDS011;50807;52.436;13.346;2024-01-10T02:26:26;41.37;;;31.40;;
15843;SDS011;50807;52.436;13.346;2024-01-10T02:26:58;39.30;;;31.75;;
15843;SDS011;50807;52.436;13.346;2024-01-10T02:27:29;38.08;;;31.75;;
15843;SDS011;50807;52.436;13.346;2024-01-10T02:28:01;38.20;;;31.77;;
15843;SDS011;50807;52.436;13.346;2024-01-10T02:28:31;37.43;;;31.87;;
15843;SDS011;50807;52.436;13.346;2024-01-10T02:29:03;36.60;;;31.02;;
15843;SDS011;50807;52.436;13.346;2024-01-10T02:29:34;37.57;;;32.27;;
15843;SDS011;50807;52.436;13.346;2024-01-10T02:30:05;37.87;;;31.37;;
15843;SDS011;50807;52.436;13.346;2024-01-10T02:30:40;36.60;;;31.13;;
15843;SDS011;50807;52.436;13.346;2024-01-10T02:31:10;37.00;;;31.17;;
15843;SDS011;50807;52.436;13.346;2024-01-10T02:31:41;36.80;;;30.90;;
15843;SDS011;50807;52.436;13.346;2024-01-10T02:32:12;39.20;;;32.47;;
15843;SDS011;50807;52.436;13.346;2024-01-10T02:32:43;39.40;;;32.33;;
15843;SDS011;50807;52.436;13.346;2024-01-10T02:33:14;40.73;;;31.13;;
15843;SDS011;50807;52.436;13.346;2024-01-10T02:33:45;38.67;;;31.73;;
15843;SDS011;50807;52.436;13.346;2024-01-10T02:34:16;35.90;;;30.00;;
15843;SDS011;50807;52.436;13.346;2024-01-10T02:34:46;38.37;;;31.40;;
15843;SDS011;50807;52.436;13.346;2024-01-10T02:35:18;37.03;;;30.83;;
15843;SDS011;50807;52.436;13.346;2024-01-10T02:35:49;36.17;;;30.80;;
15843;SDS011;50807;52.436;13.346;2024-01-10T02:36:20;37.13;;;31.03;;
15843;SDS011;50807;52.436;13.346;2024-01-10T02:36:50;39.40;;;33.07;;
15843;SDS011;50807;52.436;13.346;2024-01-10T02:37:22;38.08;;;31.30;;
15843;SDS011;50807;52.436;13.346;2024-01-10T02:37:54;39.42;;;30.95;;
15843;SDS011;50807;52.436;13.346;2024-01-10T02:38:25;39.17;;;31.95;;
15843;SDS011;50807;52.436;13.346;2024-01-10T02:38:56;37.72;;;31.75;;
15843;SDS011;50807;52.436;13.346;2024-01-10T02:39:27;39.90;;;32.03;;
15843;SDS011;50807;52.436;13.346;2024-01-10T02:40:00;36.92;;;31.23;;
15843;SDS011;50807;52.436;13.346;2024-01-10T02:40:31;34.17;;;29.73;;
15843;SDS011;50807;52.436;13.346;2024-01-10T02:41:02;40.40;;;32.10;;
15843;SDS011;50807;52.436;13.346;2024-01-10T02:41:33;42.25;;;31.90;;
15843;SDS011;50807;52.436;13.346;2024-01-10T02:42:05;35.50;;;30.90;;
15843;SDS011;50807;52.436;13.346;2024-01-10T02:42:35;38.13;;;31.17;;
15843;SDS011;50807;52.436;13.346;2024-01-10T02:43:06;39.53;;;31.00;;
15843;SDS011;50807;52.436;13.346;2024-01-10T02:43:37;37.95;;;31.50;;
15843;SDS011;50807;52.436;13.346;2024-01-10T02:44:08;37.93;;;31.93;;
15843;SDS011;50807;52.436;13.346;2024-01-10T02:44:40;37.95;;;31.83;;
15843;SDS011;50807;52.436;13.346;2024-01-10T02:45:10;38.17;;;32.20;;
15843;SDS011;50807;52.436;13.346;2024-01-10T02:45:41;35.20;;;31.20;;
15843;SDS011;50807;52.436;13.346;2024-01-10T02:46:12;39.37;;;32.27;;
15843;SDS011;50807;52.436;13.346;2024-01-10T02:46:44;40.53;;;34.00;;
15843;SDS011;50807;52.436;13.346;2024-01-10T02:47:14;36.63;;;31.27;;
15843;SDS011;50807;52.436;13.346;2024-01-10T02:47:45;36.47;;;31.43;;
15843;SDS011;50807;52.436;13.346;2024-01-10T02:48:17;36.40;;;30.02;;
15843;SDS011;50807;52.436;13.346;2024-01-10T02:48:48;40.00;;;32.67;;
15843;SDS011;50807;52.436;13.346;2024-01-10T02:49:18;39.93;;;32.30;;
15843;SDS011;50807;52.436;13.346;2024-01-10T02:49:49;40.20;;;32.10;;
15843;SDS011;50807;52.436;13.346;2024-01-10T02:50:21;40.72;;;32.38;;
15843;SDS011;50807;52.436;13.346;2024-01-10T02:50:51;39.60;;;32.20;;
15843;SDS011;50807;52.436;13.346;2024-01-10T02:51:26;37.50;;;31.92;;
15843;SDS011;50807;52.436;13.346;2024-01-10T02:51:57;38.70;;;32.33;;
15843;SDS011;50807;52.436;13.346;2024-01-10T02:52:29;41.58;;;32.75;;
15843;SDS011;50807;52.436;13.346;2024-01-10T02:53:00;37.63;;;31.77;;
15843;SDS011;50807;52.436;13.346;2024-01-10T02:53:31;37.53;;;32.07;;
15843;SDS011;50807;52.436;13.346;2024-01-10T02:54:02;40.07;;;32.13;;
15843;SDS011;50807;52.436;13.346;2024-01-10T02:54:33;38.17;;;31.33;;
15843;SDS011;50807;52.436;13.346;2024-01-10T02:55:06;38.53;;;32.77;;
15843;SDS011;50807;52.436;13.346;2024-01-10T02:55:37;36.10;;;31.27;;
15843;SDS011;50807;52.436;13.346;2024-01-10T02:56:08;36.43;;;30.57;;
15843;SDS011;50807;52.436;13.346;2024-01-10T02:56:39;40.10;;;32.45;;
15843;SDS011;50807;52.436;13.346;2024-01-10T02:57:10;38.63;;;31.38;;
15843;SDS011;50807;52.436;13.346;2024-01-10T02:57:41;40.30;;;32.00;;
15843;SDS011;50807;52.436;13.346;2024-01-10T02:58:12;38.60;;;31.67;;
15843;SDS011;50807;52.436;13.346;2024-01-10T02:58:43;39.13;;;31.33;;
15843;SDS011;50807;52.436;13.346;2024-01-10T02:59:14;38.63;;;31.63;;
15843;SDS011;50807;52.436;13.346;2024-01-10T02:59:45;37.57;;;31.67;;
15843;SDS011;50807;52.436;13.346;2024-01-10T03:00:16;38.97;;;31.97;;
15843;SDS011;50807;52.436;13.346;2024-01-10T03:00:47;36.78;;;31.67;;
15843;SDS011;50807;52.436;13.346;2024-01-10T03:01:18;37.30;;;31.15;;
15843;SDS011;50807;52.436;13.346;2024-01-10T03:01:49;39.73;;;31.93;;